This is the latest recevied weather packets stored in our database for station/object KLEMETTI. If no packets are shown the sender has not sent any weather packets the latest 10 day(s).
| Time | Temp. | Humidity | Pressure | Rain* | Wind** | Luminosity | Snow |
|---|---|---|---|---|---|---|---|
| 1777105593 | 0° C | 95% | 992.9 hPa | 0.25 mm | - | - | - |
| 1777104394 | 0° C | 96% | 992.4 hPa | 0.25 mm | - | - | - |
| 1777103194 | 0° C | 96% | 991.9 hPa | 1.27 mm | - | - | - |
| 1777101993 | 0.56° C | 95% | 991.4 hPa | 1.27 mm | - | - | - |
| 1777100793 | 0.56° C | 95% | 990.9 hPa | 1.27 mm | - | - | - |
| 1777099593 | 0.56° C | 97% | 990.5 hPa | 1.52 mm | - | - | - |
| 1777098393 | 0.56° C | 97% | 990.3 hPa | 1.52 mm | - | - | - |
| 1777097192 | 2.22° C | 94% | 990.1 hPa | 1.52 mm | - | - | - |
| 1777095992 | 2.78° C | 94% | 989.8 hPa | 0.25 mm | - | - | - |
| 1777094792 | 3.89° C | 93% | 989.7 hPa | 0.25 mm | - | - | - |
| 1777093593 | 4.44° C | 90% | 989.8 hPa | 0.25 mm | - | - | - |
| 1777092392 | 4.44° C | 87% | 990 hPa | 0 mm | - | - | - |
| 1777091192 | 4.44° C | 86% | 990.2 hPa | 0 mm | - | - | - |
| 1777089992 | 5° C | 81% | 990.4 hPa | 0 mm | - | - | - |
| 1777088792 | 5.56° C | 80% | 990.6 hPa | 0.25 mm | - | - | - |
| 1777087593 | 5° C | 82% | 991 hPa | 0.25 mm | - | - | - |
| 1777086393 | 5° C | 85% | 991.3 hPa | 0.25 mm | - | - | - |
| 1777085192 | 5° C | 87% | 991.7 hPa | 0.51 mm | - | - | - |
| 1777083992 | 5° C | 87% | 992.1 hPa | 0.51 mm | - | - | - |
| 1777082792 | 5° C | 87% | 992.8 hPa | 0.51 mm | - | - | - |
| 1777081592 | 5° C | 84% | 993.3 hPa | 0 mm | - | - | - |
| 1777080392 | 5° C | 85% | 993.6 hPa | 0 mm | - | - | - |
| 1777079192 | 5.56° C | 79% | 993.9 hPa | 0 mm | - | - | - |
| 1777077992 | 6.11° C | 72% | 994.2 hPa | 0 mm | - | - | - |
| 1777076793 | 6.11° C | 71% | 994.5 hPa | 0 mm | - | - | - |
* Rain latest hour (hover to see other rain measurements)
** Current wind speed in m/s (hover to see current wind gust speed)